createdAt,value
2022-10-13T00:04:54.419Z,101974.00
2022-10-13T00:15:17.309Z,101969.00
2022-10-13T00:25:42.170Z,101959.00
2022-10-13T00:36:07.394Z,101958.00
2022-10-13T00:46:30.807Z,101960.00
2022-10-13T00:56:55.265Z,101951.00
2022-10-13T01:07:17.684Z,101956.00
2022-10-13T01:17:48.070Z,101951.00
2022-10-13T01:28:26.760Z,101938.00
2022-10-13T01:38:57.852Z,101938.00
2022-10-13T01:49:25.468Z,101913.00
2022-10-13T01:59:48.314Z,101908.00
2022-10-13T02:10:15.721Z,101900.00
2022-10-13T02:20:44.352Z,101893.00
2022-10-13T02:31:06.946Z,101863.00
2022-10-13T02:41:29.959Z,101878.00
2022-10-13T02:51:51.544Z,101847.00
2022-10-13T03:02:14.724Z,101865.00
2022-10-13T03:12:37.769Z,101847.00
2022-10-13T03:23:00.990Z,101841.00
2022-10-13T03:33:22.964Z,101831.00
2022-10-13T03:43:47.261Z,101838.00
2022-10-13T03:54:12.937Z,101825.00
2022-10-13T04:04:36.505Z,101823.00
2022-10-13T04:14:59.261Z,101826.00
2022-10-13T04:25:23.151Z,101819.00
2022-10-13T04:35:44.893Z,101811.00
2022-10-13T04:46:14.704Z,101791.00
2022-10-13T04:56:37.201Z,101790.00
2022-10-13T05:07:17.191Z,101799.00
2022-10-13T05:17:40.987Z,101787.00
2022-10-13T05:28:05.325Z,101781.00
2022-10-13T05:38:26.881Z,101777.00
2022-10-13T05:48:49.741Z,101769.00
2022-10-13T05:59:14.998Z,101764.00
2022-10-13T06:09:42.701Z,101769.00
2022-10-13T06:20:06.025Z,101763.00
2022-10-13T06:30:29.759Z,101770.00
2022-10-13T06:41:01.199Z,101769.00
2022-10-13T06:51:29.519Z,101780.00
2022-10-13T07:02:02.042Z,101770.00
2022-10-13T07:12:24.918Z,101761.00
2022-10-13T07:22:46.406Z,101744.00
2022-10-13T07:33:10.932Z,101739.00
2022-10-13T07:43:32.768Z,101746.00
2022-10-13T07:53:56.934Z,101748.00
2022-10-13T08:04:18.492Z,101726.00
2022-10-13T08:14:41.986Z,101719.00
2022-10-13T08:25:03.526Z,101717.00
2022-10-13T08:35:26.361Z,101703.00
2022-10-13T08:45:50.933Z,101699.00
2022-10-13T08:56:18.765Z,101712.00
2022-10-13T09:06:45.055Z,101709.00
2022-10-13T09:17:18.283Z,101699.00
2022-10-13T09:27:45.128Z,101690.00
2022-10-13T09:38:12.299Z,101698.00
2022-10-13T09:48:39.140Z,101681.00
2022-10-13T09:59:25.135Z,101694.00
2022-10-13T10:10:00.079Z,101700.00
2022-10-13T10:21:01.692Z,101698.00
2022-10-13T10:31:49.840Z,101686.00
2022-10-13T10:42:27.895Z,101682.00
2022-10-13T10:52:58.775Z,101658.00
2022-10-13T11:03:32.529Z,101650.00
2022-10-13T11:13:56.371Z,101627.00
2022-10-13T11:24:59.586Z,101620.00
2022-10-13T11:35:23.883Z,101613.00
2022-10-13T11:45:59.622Z,101603.00
2022-10-13T11:56:24.078Z,101582.00
2022-10-13T12:06:54.517Z,101582.00
2022-10-13T12:17:28.761Z,101566.00
2022-10-13T12:27:53.785Z,101570.00
2022-10-13T12:38:19.780Z,101562.00
2022-10-13T12:48:44.782Z,101569.00
2022-10-13T12:59:06.503Z,101576.00
2022-10-13T13:09:31.935Z,101573.00
2022-10-13T13:19:53.698Z,101579.00
2022-10-13T13:30:19.116Z,101571.00
2022-10-13T13:40:40.282Z,101568.00
2022-10-13T13:51:04.084Z,101553.00
2022-10-13T14:01:25.870Z,101554.00
2022-10-13T14:11:49.771Z,101527.00
2022-10-13T14:22:11.497Z,101509.00
2022-10-13T14:32:35.212Z,101516.00
2022-10-13T14:42:56.703Z,101523.00
2022-10-13T14:53:20.517Z,101523.00
2022-10-13T15:03:42.220Z,101518.00
2022-10-13T15:14:10.708Z,101514.00
2022-10-13T15:24:31.908Z,101520.00
2022-10-13T15:34:58.212Z,101520.00
2022-10-13T15:45:19.445Z,101517.00
2022-10-13T15:55:42.100Z,101521.00
2022-10-13T16:06:05.422Z,101510.00
2022-10-13T16:16:29.698Z,101521.00
2022-10-13T16:26:50.874Z,101503.00
2022-10-13T16:37:13.431Z,101494.00
2022-10-13T16:47:34.952Z,101494.00
2022-10-13T16:57:58.276Z,101510.00
2022-10-13T17:08:19.711Z,101500.00
2022-10-13T17:18:42.622Z,101506.00
2022-10-13T17:29:04.102Z,101500.00
2022-10-13T17:39:32.812Z,101493.00
2022-10-13T17:49:58.224Z,101494.00
2022-10-13T18:00:23.968Z,101498.00
2022-10-13T18:11:07.171Z,101491.00
2022-10-13T18:21:29.460Z,101492.00
2022-10-13T18:31:51.428Z,101476.00
2022-10-13T18:42:14.980Z,101468.00
2022-10-13T18:52:36.527Z,101468.00
2022-10-13T19:03:05.565Z,101472.00
2022-10-13T19:14:00.173Z,101464.00
2022-10-13T19:24:22.967Z,101470.00
2022-10-13T19:34:44.355Z,101446.00
2022-10-13T19:45:10.795Z,101450.00
2022-10-13T19:55:39.052Z,101440.00
2022-10-13T20:06:07.369Z,101453.00
2022-10-13T20:16:37.881Z,101454.00
2022-10-13T20:27:03.146Z,101451.00
2022-10-13T20:37:28.984Z,101439.00
2022-10-13T20:47:55.024Z,101439.00
2022-10-13T20:58:16.271Z,101443.00
2022-10-13T21:08:45.193Z,101427.00
2022-10-13T21:19:06.652Z,101441.00
2022-10-13T21:29:29.525Z,101440.00
2022-10-13T21:39:51.361Z,101438.00
2022-10-13T21:50:15.188Z,101435.00
2022-10-13T22:00:40.802Z,101434.00
2022-10-13T22:11:04.556Z,101443.00
2022-10-13T22:21:49.634Z,101437.00
2022-10-13T22:32:15.679Z,101435.00
2022-10-13T22:42:37.363Z,101435.00
2022-10-13T22:52:59.898Z,101423.00
2022-10-13T23:03:21.694Z,101424.00
2022-10-13T23:13:45.716Z,101423.00
2022-10-13T23:24:08.314Z,101415.00
2022-10-13T23:34:31.269Z,101419.00
2022-10-13T23:44:55.131Z,101390.00
2022-10-13T23:55:20.842Z,101403.00
